Terminal Aerodrome Forecast
Issued by NWS

Home | Current Version | Previous Version | Text Only | Print | Product List | Glossary On
Versions: 1 2 3 4 5 6 7 8 9 10 11 12 13
000
FTUS43 KDMX 290520
TAFMCW
TAF
KMCW 290520Z 2906/3006 29009KT P6SM SCT110
     FM291500 29012KT P6SM BKN070
     FM292000 30018G25KT P6SM BKN060
     FM292200 30017G23KT P6SM VCSH BKN050
     FM300000 31012G18KT P6SM BKN100
     FM300200 29008KT P6SM SCT100=

USA.gov is the U.S. government's official web portal to all federal, state and local government web resources and services.